createdAt,value
2023-04-08T00:01:24.843Z,100210.59
2023-04-08T00:06:28.421Z,100215.66
2023-04-08T00:11:33.654Z,100204.22
2023-04-08T00:16:37.143Z,100216.38
2023-04-08T00:21:40.801Z,100215.53
2023-04-08T00:26:45.753Z,100214.16
2023-04-08T00:31:48.964Z,100206.91
2023-04-08T00:36:52.410Z,100207.53
2023-04-08T00:41:57.794Z,100218.94
2023-04-08T00:47:01.447Z,100218.38
2023-04-08T00:52:04.952Z,100215.19
2023-04-08T00:57:10.016Z,100210.25
2023-04-08T01:02:20.492Z,100219.97
2023-04-08T01:07:29.072Z,100214.13
2023-04-08T01:12:38.569Z,100209.25
2023-04-08T01:17:43.486Z,100214.00
2023-04-08T01:22:54.967Z,100214.28
2023-04-08T01:28:01.515Z,100212.88
2023-04-08T01:33:06.964Z,100211.50
2023-04-08T01:38:12.586Z,100208.75
2023-04-08T01:43:19.348Z,100210.28
2023-04-08T01:48:23.586Z,100215.19
2023-04-08T01:53:27.136Z,100205.41
2023-04-08T01:58:38.681Z,100219.19
2023-04-08T02:03:45.801Z,100211.06
2023-04-08T02:08:49.559Z,100213.75
2023-04-08T02:13:55.558Z,100220.78
2023-04-08T02:19:04.912Z,100199.66
2023-04-08T02:24:11.650Z,100216.31
2023-04-08T02:29:17.713Z,100215.31
2023-04-08T02:34:23.270Z,100219.47
2023-04-08T02:39:33.380Z,100217.69
2023-04-08T02:44:38.364Z,100225.81
2023-04-08T02:49:41.684Z,100224.66
2023-04-08T02:54:45.093Z,100232.19
2023-04-08T02:59:49.941Z,100233.25
2023-04-08T03:04:53.537Z,100232.13
2023-04-08T03:09:57.104Z,100232.41
2023-04-08T03:15:03.694Z,100238.91
2023-04-08T03:20:08.548Z,100239.53
2023-04-08T03:25:12.020Z,100239.16
2023-04-08T03:30:18.318Z,100225.00
2023-04-08T03:35:21.937Z,100228.75
2023-04-08T03:40:25.680Z,100236.06
2023-04-08T03:45:30.525Z,100240.03
2023-04-08T03:50:34.153Z,100236.31
2023-04-08T03:55:37.611Z,100233.84
2023-04-08T04:00:42.450Z,100236.25
2023-04-08T04:05:45.891Z,100236.69
2023-04-08T04:10:49.338Z,100234.44
2023-04-08T04:15:54.126Z,100239.47
2023-04-08T04:20:57.600Z,100236.44
2023-04-08T04:26:01.414Z,100239.22
2023-04-08T04:31:06.450Z,100236.44
2023-04-08T04:36:10.037Z,100243.41
2023-04-08T04:41:13.557Z,100247.72
2023-04-08T04:46:18.529Z,100242.59
2023-04-08T04:51:22.001Z,100254.69
2023-04-08T04:56:26.625Z,100252.75
2023-04-08T05:01:31.737Z,100239.41
2023-04-08T05:06:35.487Z,100239.81
2023-04-08T05:11:39.577Z,100246.59
2023-04-08T05:16:44.679Z,100245.56
2023-04-08T05:21:48.118Z,100254.78
2023-04-08T05:26:53.463Z,100260.13
2023-04-08T05:31:58.380Z,100258.88
2023-04-08T05:37:01.914Z,100262.66
2023-04-08T05:42:05.765Z,100275.19
2023-04-08T05:47:10.691Z,100269.13
2023-04-08T05:52:14.259Z,100270.47
2023-04-08T05:57:18.049Z,100273.72
2023-04-08T06:02:23.116Z,100279.41
2023-04-08T06:07:26.670Z,100273.78
2023-04-08T06:12:30.233Z,100277.16
2023-04-08T06:17:37.514Z,100269.94
2023-04-08T06:22:41.219Z,100264.22
2023-04-08T06:27:44.638Z,100266.31
2023-04-08T06:32:49.572Z,100269.81
2023-04-08T06:37:52.992Z,100268.09
2023-04-08T06:42:56.629Z,100264.81
2023-04-08T06:48:01.684Z,100270.81
2023-04-08T06:53:05.204Z,100268.13
2023-04-08T06:58:08.713Z,100260.22
2023-04-08T07:03:13.706Z,100271.50
2023-04-08T07:08:18.004Z,100255.22
2023-04-08T07:13:23.772Z,100257.31
2023-04-08T07:18:28.668Z,100258.84
2023-04-08T07:23:32.127Z,100254.75
2023-04-08T07:28:35.610Z,100243.50
2023-04-08T07:33:40.525Z,100249.88
2023-04-08T07:38:43.937Z,100257.16
2023-04-08T07:43:47.537Z,100254.00
2023-04-08T07:48:53.148Z,100245.94
2023-04-08T07:53:57.204Z,100250.00
2023-04-08T07:59:00.668Z,100248.75
2023-04-08T08:04:06.004Z,100250.47
2023-04-08T08:09:09.580Z,100234.94
2023-04-08T08:14:14.042Z,100239.84
2023-04-08T08:19:18.901Z,100239.84
2023-04-08T08:24:22.726Z,100245.75
2023-04-08T08:29:26.484Z,100227.16
2023-04-08T08:34:31.909Z,100217.97
2023-04-08T08:39:35.613Z,100219.28
2023-04-08T08:44:38.752Z,100215.41
2023-04-08T08:49:44.334Z,100217.97
2023-04-08T08:54:47.788Z,100201.97
2023-04-08T08:59:51.475Z,100203.09
2023-04-08T09:05:01.369Z,100216.91
2023-04-08T09:10:07.368Z,100199.44
2023-04-08T09:15:11.911Z,100207.84
2023-04-08T09:20:17.042Z,100201.03
2023-04-08T09:25:27.988Z,100207.25
2023-04-08T09:30:33.891Z,100199.69
2023-04-08T09:35:38.943Z,100199.88
2023-04-08T09:40:44.534Z,100193.91
2023-04-08T09:45:48.997Z,100206.78
2023-04-08T09:50:54.035Z,100201.94
2023-04-08T09:55:59.341Z,100188.63
2023-04-08T10:01:03.952Z,100191.41
2023-04-08T10:06:10.561Z,100189.25
2023-04-08T10:11:15.971Z,100156.31
2023-04-08T10:16:24.844Z,100191.72
2023-04-08T10:21:42.684Z,100190.22
2023-04-08T10:26:48.981Z,100179.38
2023-04-08T10:31:53.054Z,100160.31
2023-04-08T10:37:02.275Z,100184.97
2023-04-08T10:42:09.733Z,100175.19
2023-04-08T10:47:13.793Z,100163.91
2023-04-08T10:52:20.136Z,100167.34
2023-04-08T10:57:27.165Z,100160.31
2023-04-08T11:02:34.994Z,100158.50
2023-04-08T11:07:43.093Z,100157.84
2023-04-08T11:12:47.102Z,100143.47
2023-04-08T11:17:51.411Z,100152.81
2023-04-08T11:22:56.629Z,100149.28
2023-04-08T11:28:00.425Z,100145.69
2023-04-08T11:33:04.078Z,100140.53
2023-04-08T11:38:10.174Z,100135.25
2023-04-08T11:43:15.542Z,100134.56
2023-04-08T11:48:19.333Z,100131.81
2023-04-08T11:53:27.195Z,100125.19
2023-04-08T11:58:30.960Z,100125.28
2023-04-08T12:03:34.564Z,100120.59
2023-04-08T12:08:39.552Z,100119.91
2023-04-08T12:13:42.982Z,100119.16
2023-04-08T12:18:46.825Z,100106.16
2023-04-08T12:23:52.502Z,100113.94
2023-04-08T12:28:56.423Z,100100.72
2023-04-08T12:33:59.953Z,100098.69
2023-04-08T12:39:05.223Z,100092.38
2023-04-08T12:44:08.632Z,100098.69
2023-04-08T12:49:12.301Z,100090.03
2023-04-08T12:54:17.326Z,100084.69
2023-04-08T12:59:20.736Z,100081.13
2023-04-08T13:04:24.176Z,100070.09
2023-04-08T13:09:30.844Z,100067.34
2023-04-08T13:14:34.348Z,100069.00
2023-04-08T13:19:37.977Z,100067.28
2023-04-08T13:24:43.144Z,100071.53
2023-04-08T13:29:46.648Z,100051.44
2023-04-08T13:34:50.113Z,100045.13
2023-04-08T13:39:54.969Z,100046.22
2023-04-08T13:44:58.623Z,100045.59
2023-04-08T13:50:02.090Z,100034.41
2023-04-08T13:55:09.610Z,100043.25
2023-04-08T14:00:14.129Z,100041.59
2023-04-08T14:05:17.748Z,100037.19
2023-04-08T14:10:22.752Z,100038.03
2023-04-08T14:15:26.333Z,100034.66
2023-04-08T14:20:30.007Z,100036.31
2023-04-08T14:25:34.960Z,100026.78
2023-04-08T14:30:39.152Z,100026.75
2023-04-08T14:35:42.762Z,100026.88
2023-04-08T14:40:47.630Z,100020.88
2023-04-08T14:45:51.749Z,100017.28
2023-04-08T14:50:55.317Z,100023.22
2023-04-08T14:56:00.150Z,100018.91
2023-04-08T15:01:03.691Z,100024.09
2023-04-08T15:06:07.462Z,100019.94
2023-04-08T15:11:12.345Z,100025.19
2023-04-08T15:16:15.948Z,100020.94
2023-04-08T15:21:19.574Z,100011.44
2023-04-08T15:26:24.612Z,100011.44
2023-04-08T15:31:28.076Z,100011.41
2023-04-08T15:36:32.310Z,100013.19
2023-04-08T15:41:37.173Z,100001.84
2023-04-08T15:46:40.742Z,100021.00
2023-04-08T15:51:44.897Z,100020.13
2023-04-08T15:56:49.950Z,100023.66
2023-04-08T16:01:53.567Z,100017.59
2023-04-08T16:06:57.212Z,100013.31
2023-04-08T16:12:02.038Z,100020.31
2023-04-08T16:17:05.835Z,100022.06
2023-04-08T16:22:09.314Z,100023.84
2023-04-08T16:27:14.284Z,100017.78
2023-04-08T16:32:17.905Z,100023.84
2023-04-08T16:37:21.408Z,100023.88
2023-04-08T16:42:26.358Z,100034.31
2023-04-08T16:47:29.939Z,100037.75
2023-04-08T16:52:33.460Z,100035.13
2023-04-08T16:57:38.371Z,100048.97
2023-04-08T17:02:41.689Z,100050.69
2023-04-08T17:07:45.548Z,100059.28
2023-04-08T17:12:50.517Z,100050.56
2023-04-08T17:17:53.987Z,100045.25
2023-04-08T17:22:57.466Z,100055.59
2023-04-08T17:28:02.321Z,100051.22
2023-04-08T17:33:05.593Z,100052.84
2023-04-08T17:38:09.087Z,100058.75
2023-04-08T17:43:14.038Z,100061.16
2023-04-08T17:48:17.715Z,100063.59
2023-04-08T17:53:21.134Z,100057.31
2023-04-08T17:58:26.495Z,100064.91
2023-04-08T18:03:30.125Z,100061.22
2023-04-08T18:08:33.744Z,100056.69
2023-04-08T18:13:38.635Z,100058.28
2023-04-08T18:18:42.296Z,100057.22
2023-04-08T18:23:47.181Z,100048.41
2023-04-08T18:28:51.765Z,100049.16
2023-04-08T18:33:55.165Z,100047.09
2023-04-08T18:38:59.019Z,100049.47
2023-04-08T18:44:04.264Z,100048.31
2023-04-08T18:49:07.849Z,100050.72
2023-04-08T18:54:11.270Z,100050.50
2023-04-08T18:59:16.553Z,100052.81
2023-04-08T19:04:20.076Z,100053.44
2023-04-08T19:09:23.688Z,100051.47
2023-04-08T19:14:28.529Z,100052.03
2023-04-08T19:19:32.791Z,100044.72
2023-04-08T19:24:36.823Z,100060.94
2023-04-08T19:29:41.746Z,100055.66
2023-04-08T19:34:45.155Z,100056.22
2023-04-08T19:39:48.555Z,100054.31
2023-04-08T19:44:53.381Z,100059.31
2023-04-08T19:49:58.412Z,100047.81
2023-04-08T19:55:02.536Z,100057.22
2023-04-08T20:00:11.679Z,100059.59
2023-04-08T20:05:17.505Z,100061.09
2023-04-08T20:10:21.938Z,100066.94
2023-04-08T20:15:26.881Z,100065.94
2023-04-08T20:20:30.166Z,100071.75
2023-04-08T20:25:33.705Z,100068.75
2023-04-08T20:30:38.723Z,100073.75
2023-04-08T20:35:41.923Z,100075.06
2023-04-08T20:40:46.440Z,100071.28
2023-04-08T20:45:51.249Z,100078.06
2023-04-08T20:50:54.909Z,100069.31
2023-04-08T20:55:58.483Z,100065.50
2023-04-08T21:01:03.478Z,100067.97
2023-04-08T21:06:06.741Z,100069.72
2023-04-08T21:11:10.154Z,100070.25
2023-04-08T21:16:15.095Z,100071.00
2023-04-08T21:21:18.392Z,100068.28
2023-04-08T21:26:22.390Z,100071.38
2023-04-08T21:31:27.523Z,100072.88
2023-04-08T21:36:31.577Z,100069.41
2023-04-08T21:41:35.024Z,100082.78
2023-04-08T21:46:39.981Z,100067.97
2023-04-08T21:51:43.330Z,100072.16
2023-04-08T21:56:46.758Z,100069.84
2023-04-08T22:01:51.720Z,100071.53
2023-04-08T22:06:55.253Z,100074.97
2023-04-08T22:11:58.694Z,100076.44
2023-04-08T22:17:04.648Z,100078.22
2023-04-08T22:22:08.369Z,100082.94
2023-04-08T22:27:11.843Z,100078.47
2023-04-08T22:32:18.309Z,100082.66
2023-04-08T22:37:22.005Z,100072.84
2023-04-08T22:42:25.607Z,100070.94
2023-04-08T22:47:30.515Z,100081.38
2023-04-08T22:52:33.716Z,100079.53
2023-04-08T22:57:37.111Z,100080.97
2023-04-08T23:02:42.026Z,100080.97
2023-04-08T23:07:45.254Z,100079.91
2023-04-08T23:12:48.667Z,100075.31
2023-04-08T23:17:53.665Z,100076.03
2023-04-08T23:22:57.206Z,100078.41
2023-04-08T23:28:01.768Z,100074.78
2023-04-08T23:33:06.820Z,100083.22
2023-04-08T23:38:10.134Z,100077.63
2023-04-08T23:43:13.560Z,100076.81
2023-04-08T23:48:18.452Z,100083.69
2023-04-08T23:53:21.747Z,100071.38
2023-04-08T23:58:25.214Z,100086.56
